Time;durP1;ratioP1;P1;durP2;ratioP2;P2;SDS_P1;SDS_P2;PMS_P1;PMS_P2;Temp;Humidity;BMP_temperature;BMP_pressure;BME280_temperature;BME280_humidity;BME280_pressure;Samples;Min_cycle;Max_cycle;Signal;HPM_P1;HPM_P2
2022/09/16 00:00:29;;;;;;;12.35;3.50;;;;;;;17.21;71.01;95862.97;5093503;28;20044;-59
2022/09/16 00:02:57;;;;;;;8.70;3.97;;;;;;;17.21;71.31;95871.75;5093789;28;20047;-59
2022/09/16 00:05:25;;;;;;;5.88;3.05;;;;;;;17.18;71.43;95869.34;5093397;28;20057;-59
2022/09/16 00:07:52;;;;;;;8.88;3.20;;;;;;;17.21;71.46;95868.25;5093448;28;20044;-59
2022/09/16 00:10:21;;;;;;;6.75;3.17;;;;;;;17.18;71.67;95864.06;5093288;28;20148;-59
2022/09/16 00:12:48;;;;;;;5.78;3.75;;;;;;;17.15;71.21;95870.44;5093586;28;20044;-59
2022/09/16 00:15:17;;;;;;;11.13;3.83;;;;;;;17.13;71.71;95869.69;5093376;28;20405;-59
2022/09/16 00:17:44;;;;;;;8.43;3.85;;;;;;;17.10;71.52;95864.63;5092610;28;20122;-59
2022/09/16 00:20:11;;;;;;;17.13;4.18;;;;;;;17.01;71.16;95867.97;5093187;28;20127;-59
2022/09/16 00:22:39;;;;;;;11.40;3.55;;;;;;;16.98;72.11;95865.53;5093168;28;20482;-59
2022/09/16 00:25:07;;;;;;;7.90;3.72;;;;;;;17.05;72.47;95869.41;5093337;28;20054;-59
2022/09/16 00:27:36;;;;;;;6.60;3.30;;;;;;;17.00;72.15;95864.47;5093130;28;20052;-59
2022/09/16 00:30:05;;;;;;;8.68;3.35;;;;;;;16.99;72.29;95854.00;5093209;28;20051;-59
2022/09/16 00:32:32;;;;;;;7.80;3.63;;;;;;;16.93;72.12;95861.44;5093377;28;20101;-59
2022/09/16 00:34:59;;;;;;;9.48;3.75;;;;;;;16.93;72.12;95856.16;5093432;28;20040;-59
2022/09/16 00:37:29;;;;;;;11.77;3.30;;;;;;;16.92;71.99;95853.63;5093159;28;20478;-59
2022/09/16 00:39:56;;;;;;;8.90;3.70;;;;;;;16.91;72.15;95858.06;5093043;28;20516;-59
2022/09/16 00:42:24;;;;;;;6.13;3.35;;;;;;;16.90;72.24;95856.41;5093104;28;20074;-59
2022/09/16 00:44:56;;;;;;;10.48;4.15;;;;;;;16.93;72.20;95855.31;5093063;28;20105;-58
2022/09/16 00:47:29;;;;;;;12.35;3.10;;;;;;;16.92;71.93;95857.09;5093081;28;20102;-59
2022/09/16 00:50:02;;;;;;;7.55;3.03;;;;;;;16.91;72.23;95858.06;5092964;28;20048;-59
2022/09/16 00:52:31;;;;;;;8.82;3.80;;;;;;;16.90;72.19;95858.19;5093070;28;20059;-59
2022/09/16 00:55:01;;;;;;;9.02;3.75;;;;;;;16.86;71.98;95856.72;5092986;28;20051;-59
2022/09/16 00:57:28;;;;;;;5.57;3.22;;;;;;;16.81;71.92;95859.72;5093129;28;20071;-59
2022/09/16 01:00:01;;;;;;;10.80;3.33;;;;;;;16.84;72.49;95867.41;5092885;28;20401;-59
2022/09/16 01:02:28;;;;;;;14.57;3.17;;;;;;;16.82;72.46;95869.31;5093085;28;20497;-59
2022/09/16 01:05:00;;;;;;;8.27;2.90;;;;;;;16.74;71.76;95869.88;5092920;28;20398;-59
2022/09/16 01:07:34;;;;;;;9.65;3.50;;;;;;;16.77;72.30;95874.94;5092820;28;20040;-59
2022/09/16 01:10:01;;;;;;;8.02;2.78;;;;;;;16.70;72.58;95872.88;5092853;28;20052;-59
2022/09/16 01:12:31;;;;;;;17.85;3.58;;;;;;;16.67;72.95;95879.19;5092745;28;20490;-59
2022/09/16 01:15:02;;;;;;;6.28;2.85;;;;;;;16.63;72.70;95877.75;5092788;28;20131;-59
2022/09/16 01:17:52;;;;;;;5.70;2.85;;;;;;;16.65;73.17;95873.22;5092707;28;20055;-60
2022/09/16 01:20:47;;;;;;;11.77;3.42;;;;;;;16.61;73.38;95877.00;5092879;28;20130;-59
2022/09/16 01:23:41;;;;;;;10.10;3.22;;;;;;;16.63;73.43;95877.75;5092689;28;20048;-60
2022/09/16 01:26:26;;;;;;;9.10;3.13;;;;;;;16.54;73.52;95881.91;5092576;28;20080;-60
2022/09/16 01:29:25;;;;;;;5.75;3.30;;;;;;;16.52;73.85;95881.16;5095620;28;20113;-59
2022/09/16 01:32:04;;;;;;;11.30;3.22;;;;;;;16.55;73.83;95881.78;5094523;28;20052;-59
2022/09/16 01:34:42;;;;;;;12.48;3.47;;;;;;;16.53;73.61;95875.78;5096439;28;20040;-59
2022/09/16 01:37:17;;;;;;;9.48;3.42;;;;;;;16.54;73.75;95876.63;5096165;28;20117;-60
2022/09/16 01:39:49;;;;;;;17.15;3.50;;;;;;;16.52;73.62;95875.88;5096232;28;20131;-59
2022/09/16 01:42:26;;;;;;;7.32;3.13;;;;;;;16.50;73.35;95872.53;5096273;28;20557;-59
2022/09/16 01:45:00;;;;;;;9.20;3.10;;;;;;;16.49;73.57;95886.66;5095977;28;20044;-60
2022/09/16 01:47:36;;;;;;;12.70;3.42;;;;;;;16.45;73.73;95880.78;5096129;28;20051;-60
2022/09/16 01:50:12;;;;;;;8.40;3.42;;;;;;;16.37;73.71;95873.41;5096274;28;20048;-59
2022/09/16 01:52:49;;;;;;;10.23;3.38;;;;;;;16.40;74.00;95881.09;5096024;28;20444;-60
2022/09/16 01:55:23;;;;;;;5.22;3.00;;;;;;;16.42;73.79;95887.13;5095875;28;20116;-59
2022/09/16 01:57:56;;;;;;;7.93;3.50;;;;;;;16.38;73.75;95885.66;5095811;28;20055;-59
2022/09/16 02:00:24;;;;;;;8.98;3.20;;;;;;;16.45;73.80;95887.84;5095600;28;20486;-60
2022/09/16 02:02:58;;;;;;;11.27;3.42;;;;;;;16.49;73.87;95894.59;5095677;28;20109;-60
2022/09/16 02:05:31;;;;;;;9.13;3.03;;;;;;;16.49;74.03;95894.59;5095643;28;20422;-59
2022/09/16 02:08:02;;;;;;;6.47;3.33;;;;;;;16.49;74.06;95895.44;5095553;28;20076;-59
2022/09/16 02:10:33;;;;;;;15.57;3.55;;;;;;;16.49;73.87;95889.31;5095672;28;20039;-59
2022/09/16 02:13:05;;;;;;;12.50;3.58;;;;;;;16.46;73.90;95890.38;5095480;28;20040;-60
2022/09/16 02:15:34;;;;;;;10.18;3.33;;;;;;;16.41;74.06;95884.59;5095614;28;20134;-59
2022/09/16 02:18:07;;;;;;;9.77;3.35;;;;;;;16.43;74.09;95893.22;5095534;28;20052;-59
2022/09/16 02:20:38;;;;;;;8.25;3.05;;;;;;;16.47;74.10;95885.94;5095399;28;20048;-60
2022/09/16 02:23:10;;;;;;;11.20;3.28;;;;;;;16.49;73.94;95884.03;5095429;28;20087;-59
2022/09/16 02:25:40;;;;;;;10.38;2.85;;;;;;;16.51;73.78;95882.97;5095420;28;20083;-59
2022/09/16 02:28:13;;;;;;;8.95;3.20;;;;;;;16.47;73.53;95884.16;5095334;28;20131;-59
2022/09/16 02:30:45;;;;;;;7.15;2.83;;;;;;;16.47;73.57;95885.94;5095204;28;20048;-59
2022/09/16 02:33:16;;;;;;;10.18;3.15;;;;;;;16.48;73.64;95890.25;5095334;28;20120;-59
2022/09/16 02:35:47;;;;;;;10.98;2.72;;;;;;;16.46;73.30;95894.84;5095295;28;20144;-59
2022/09/16 02:38:18;;;;;;;6.45;2.88;;;;;;;16.46;73.64;95902.75;5095107;28;20076;-59
2022/09/16 02:40:51;;;;;;;10.50;3.08;;;;;;;16.42;73.50;95895.06;5094321;28;20056;-59
2022/09/16 02:43:19;;;;;;;10.10;3.10;;;;;;;16.41;73.55;95895.97;5094859;28;20040;-60
2022/09/16 02:45:52;;;;;;;7.55;3.25;;;;;;;16.40;73.17;95896.09;5095218;28;20123;-59
2022/09/16 02:48:31;;;;;;;11.52;3.10;;;;;;;16.30;73.08;95893.28;5094952;28;20131;-59
2022/09/16 02:51:07;;;;;;;9.55;2.83;;;;;;;16.32;73.24;95898.44;5094850;28;20047;-59
2022/09/16 02:53:45;;;;;;;14.50;3.20;;;;;;;16.41;73.72;95908.34;5094756;28;20122;-59
2022/09/16 02:56:21;;;;;;;7.78;2.80;;;;;;;16.44;73.37;95904.66;5094928;28;20123;-59
2022/09/16 02:58:49;;;;;;;12.38;3.15;;;;;;;16.46;73.18;95897.47;5094588;28;20044;-59
2022/09/16 03:01:20;;;;;;;13.15;3.45;;;;;;;16.50;73.02;95896.28;5094730;28;20052;-59
2022/09/16 03:03:49;;;;;;;9.35;2.97;;;;;;;16.55;73.19;95896.78;5094617;28;20044;-59
2022/09/16 03:06:19;;;;;;;9.02;3.22;;;;;;;16.54;73.76;95898.59;5094681;28;20456;-59
2022/09/16 03:08:48;;;;;;;9.85;3.35;;;;;;;16.62;74.41;95899.84;5094593;28;20039;-59
2022/09/16 03:11:41;;;;;;;11.00;3.67;;;;;;;16.66;74.25;95901.28;5094452;28;20071;-59
2022/09/16 03:14:31;;;;;;;10.13;3.15;;;;;;;16.69;74.17;95895.78;5088752;28;20050;-60
2022/09/16 03:17:09;;;;;;;8.05;2.75;;;;;;;16.73;73.59;95886.69;5094531;28;20489;-59
2022/09/16 03:19:46;;;;;;;6.63;2.72;;;;;;;16.77;74.87;95896.06;5094186;28;20078;-59
2022/09/16 03:22:20;;;;;;;7.53;3.10;;;;;;;16.77;74.70;95892.59;5094148;28;20056;-59
2022/09/16 03:24:59;;;;;;;10.70;3.17;;;;;;;16.75;74.79;95891.84;5094201;28;20405;-59
2022/09/16 03:27:31;;;;;;;16.35;3.03;;;;;;;16.71;75.12;95891.25;5094085;28;20547;-59
2022/09/16 03:30:05;;;;;;;13.75;3.67;;;;;;;16.70;74.70;95891.38;5094429;28;20048;-59
2022/09/16 03:32:36;;;;;;;9.77;3.05;;;;;;;16.70;74.76;95888.72;5094035;28;20048;-59
2022/09/16 03:35:09;;;;;;;8.20;2.78;;;;;;;16.58;74.19;95883.38;5094109;28;20082;-59
2022/09/16 03:37:39;;;;;;;10.93;4.00;;;;;;;16.62;74.73;95884.00;5094227;28;20432;-59
2022/09/16 03:40:11;;;;;;;11.43;3.00;;;;;;;16.63;74.47;95883.88;5093904;28;20044;-59
2022/09/16 03:42:39;;;;;;;8.65;3.00;;;;;;;16.66;74.18;95881.03;5093683;28;20138;-59
2022/09/16 03:45:07;;;;;;;8.20;3.05;;;;;;;16.65;73.86;95874.03;5093732;28;20048;-59
2022/09/16 03:47:35;;;;;;;6.68;2.42;;;;;;;16.62;73.78;95878.72;5094064;28;20129;-59
2022/09/16 03:50:02;;;;;;;9.35;3.33;;;;;;;16.67;73.79;95884.47;5093765;28;20043;-59
2022/09/16 03:52:31;;;;;;;7.40;2.95;;;;;;;16.68;74.18;95880.91;5092997;28;20051;-60
2022/09/16 03:54:58;;;;;;;5.15;3.10;;;;;;;16.66;74.06;95877.53;5093702;28;20040;-59
2022/09/16 03:57:27;;;;;;;10.93;2.92;;;;;;;16.64;73.93;95876.78;5093560;28;20555;-60
2022/09/16 03:59:54;;;;;;;10.98;3.05;;;;;;;16.59;74.36;95884.22;5093476;28;20044;-59
2022/09/16 04:02:21;;;;;;;6.80;2.88;;;;;;;16.54;74.89;95888.03;5093695;28;20051;-59
2022/09/16 04:04:48;;;;;;;12.88;3.30;;;;;;;16.42;75.03;95887.13;5093643;28;20083;-59
2022/09/16 04:07:15;;;;;;;10.13;2.75;;;;;;;16.48;75.50;95891.13;5093495;28;20044;-59
2022/09/16 04:09:44;;;;;;;8.95;3.10;;;;;;;16.52;74.74;95889.94;5093398;28;20125;-59
2022/09/16 04:12:12;;;;;;;14.90;3.22;;;;;;;16.57;73.62;95900.16;5093407;28;20083;-59
2022/09/16 04:14:40;;;;;;;7.95;2.72;;;;;;;16.64;73.23;95901.41;5093245;28;20079;-59
2022/09/16 04:17:07;;;;;;;5.90;2.50;;;;;;;16.70;73.11;95899.28;5093324;28;20079;-59
2022/09/16 04:19:34;;;;;;;10.20;2.75;;;;;;;16.71;72.46;95906.25;5093490;28;20543;-59
2022/09/16 04:22:01;;;;;;;8.05;2.47;;;;;;;16.78;73.71;95897.75;5093274;28;20048;-59
2022/09/16 04:24:29;;;;;;;9.57;2.70;;;;;;;16.83;73.69;95902.72;5093278;28;20044;-59
2022/09/16 04:26:57;;;;;;;13.68;2.83;;;;;;;16.95;73.81;95900.97;5093480;28;20051;-59
2022/09/16 04:29:25;;;;;;;13.45;3.25;;;;;;;17.00;73.68;95904.09;5093324;28;20436;-59
2022/09/16 04:31:52;;;;;;;7.72;2.80;;;;;;;17.13;73.68;95900.56;5093152;28;20094;-59
2022/09/16 04:34:19;;;;;;;7.57;2.58;;;;;;;17.20;72.74;95901.78;5093085;28;20048;-59
2022/09/16 04:36:47;;;;;;;13.10;3.40;;;;;;;17.31;72.04;95908.91;5093068;28;20473;-59
2022/09/16 04:39:14;;;;;;;7.80;2.55;;;;;;;17.40;72.77;95910.03;5093323;28;20124;-59
2022/09/16 04:41:42;;;;;;;11.60;2.80;;;;;;;17.41;71.69;95909.91;5093234;28;20405;-59
2022/09/16 04:44:11;;;;;;;11.20;2.92;;;;;;;17.52;72.20;95905.59;5093064;28;20043;-59
2022/09/16 04:46:38;;;;;;;10.48;2.42;;;;;;;17.68;72.39;95905.25;5092968;28;20048;-59
2022/09/16 04:49:05;;;;;;;13.18;2.70;;;;;;;17.88;72.03;95913.47;5093065;28;20070;-60
2022/09/16 04:51:32;;;;;;;10.02;3.10;;;;;;;18.23;71.54;95914.31;5093086;28;20048;-60
2022/09/16 04:54:00;;;;;;;18.75;2.70;;;;;;;18.64;71.04;95923.44;5092989;28;20130;-59
2022/09/16 04:56:30;;;;;;;13.57;3.17;;;;;;;18.95;70.05;95912.13;5093089;28;20075;-59
2022/09/16 04:59:02;;;;;;;16.77;3.47;;;;;;;19.36;68.27;95915.00;5093090;28;20050;-59
2022/09/16 05:01:32;;;;;;;12.27;2.20;;;;;;;19.76;66.75;95910.78;5092849;28;20481;-60
2022/09/16 05:04:02;;;;;;;11.70;2.45;;;;;;;20.36;64.99;95916.38;5096180;28;20090;-60
2022/09/16 05:06:31;;;;;;;14.87;2.93;;;;;;;20.95;63.74;95911.22;5096905;28;20055;-59
2022/09/16 05:08:59;;;;;;;12.18;3.13;;;;;;;21.58;63.90;95919.69;5096759;28;20076;-59
2022/09/16 05:11:28;;;;;;;10.90;2.47;;;;;;;22.21;61.97;95923.63;5096800;28;20048;-59
2022/09/16 05:13:58;;;;;;;11.57;2.42;;;;;;;22.80;59.76;95921.66;5096512;28;20584;-59
2022/09/16 05:16:26;;;;;;;9.40;2.67;;;;;;;23.35;57.26;95922.53;5096871;28;20128;-59
2022/09/16 05:18:57;;;;;;;16.48;2.92;;;;;;;23.73;54.08;95917.00;5096567;28;20044;-59
2022/09/16 05:21:27;;;;;;;10.48;2.72;;;;;;;23.98;53.40;95904.66;5096473;28;20101;-59
2022/09/16 05:23:56;;;;;;;11.07;2.30;;;;;;;24.31;54.34;95897.81;5096445;28;20074;-60
2022/09/16 05:26:25;;;;;;;8.48;2.53;;;;;;;24.59;55.91;95900.28;5096357;28;20135;-60
2022/09/16 05:28:52;;;;;;;9.10;2.20;;;;;;;24.80;54.38;95902.47;5096401;28;20125;-59
2022/09/16 05:31:21;;;;;;;8.13;2.30;;;;;;;24.94;54.25;95898.38;5096274;28;20040;-60
2022/09/16 05:33:57;;;;;;;8.27;2.33;;;;;;;24.97;53.69;95890.03;5096324;28;20051;-59
2022/09/16 05:36:25;;;;;;;9.70;2.65;;;;;;;25.14;52.28;95889.19;5096291;28;20082;-59
2022/09/16 05:38:52;;;;;;;7.47;2.35;;;;;;;25.33;52.57;95886.22;5096193;28;20466;-59
2022/09/16 05:41:20;;;;;;;8.45;2.45;;;;;;;25.45;54.67;95892.06;5096195;28;20101;-59
2022/09/16 05:43:47;;;;;;;10.18;2.35;;;;;;;25.33;52.59;95880.00;5096148;28;20067;-59
2022/09/16 05:46:18;;;;;;;9.10;2.70;;;;;;;25.05;51.93;95881.19;5096124;28;20052;-59
2022/09/16 05:48:46;;;;;;;7.30;2.40;;;;;;;24.92;53.63;95887.00;5095986;28;20530;-59
2022/09/16 05:51:17;;;;;;;11.70;2.92;;;;;;;24.73;58.10;95880.09;5096054;28;20072;-59
2022/09/16 05:53:46;;;;;;;7.22;2.50;;;;;;;24.50;58.47;95877.19;5095949;28;20056;-59
2022/09/16 05:56:16;;;;;;;12.20;3.00;;;;;;;24.26;58.41;95874.25;5095993;28;20102;-59
2022/09/16 05:58:43;;;;;;;5.63;2.33;;;;;;;23.95;58.45;95880.94;5095795;28;20126;-59
2022/09/16 06:01:12;;;;;;;8.05;2.60;;;;;;;23.83;59.56;95875.03;5095745;28;20090;-59
2022/09/16 06:03:42;;;;;;;12.05;2.60;;;;;;;23.82;61.37;95872.53;5095657;28;20048;-59
2022/09/16 06:06:16;;;;;;;19.83;2.95;;;;;;;23.82;62.96;95872.53;5095600;28;20052;-59
2022/09/16 06:08:43;;;;;;;11.02;3.40;;;;;;;23.80;64.30;95878.00;5095653;28;20382;-59
2022/09/16 06:11:12;;;;;;;10.07;3.05;;;;;;;23.76;64.42;95865.97;5095508;28;20541;-59
2022/09/16 06:13:40;;;;;;;14.38;2.80;;;;;;;23.77;63.89;95872.13;5095011;28;20379;-59
2022/09/16 06:16:09;;;;;;;14.38;2.45;;;;;;;23.85;64.79;95877.53;5095094;28;20451;-59
2022/09/16 06:18:36;;;;;;;21.13;3.33;;;;;;;24.04;66.31;95876.47;5095582;28;20048;-60
2022/09/16 06:21:06;;;;;;;8.05;2.22;;;;;;;24.71;58.67;95872.22;5095444;28;20040;-60
2022/09/16 06:23:35;;;;;;;10.93;2.25;;;;;;;25.42;54.45;95872.81;5095360;28;20087;-60
2022/09/16 06:26:04;;;;;;;7.20;2.47;;;;;;;26.10;53.37;95873.38;5095396;28;20047;-60
2022/09/16 06:28:31;;;;;;;10.13;2.67;;;;;;;26.97;53.46;95867.28;5095414;28;20497;-61
2022/09/16 06:31:03;;;;;;;11.23;2.70;;;;;;;27.42;50.61;95863.94;5095336;28;20076;-60
2022/09/16 06:33:30;;;;;;;11.18;2.45;;;;;;;27.71;53.79;95863.19;5095091;28;20126;-60
2022/09/16 06:35:57;;;;;;;12.32;2.55;;;;;;;28.21;51.91;95873.41;5095284;28;20123;-60
2022/09/16 06:38:25;;;;;;;17.38;2.85;;;;;;;28.83;49.86;95867.75;5095219;28;20374;-60
2022/09/16 06:40:57;;;;;;;9.02;2.90;;;;;;;29.52;46.50;95872.75;5095048;28;20044;-60
2022/09/16 06:43:25;;;;;;;8.95;2.60;;;;;;;29.98;44.67;95886.81;5094946;28;20391;-61
2022/09/16 06:45:52;;;;;;;8.50;2.60;;;;;;;30.22;43.22;95882.00;5095182;28;20052;-60
2022/09/16 06:48:19;;;;;;;5.97;2.10;;;;;;;30.19;43.36;95885.91;5095319;28;20160;-60
2022/09/16 06:50:46;;;;;;;10.98;2.83;;;;;;;30.52;41.06;95885.25;5095033;28;20117;-61
2022/09/16 06:53:13;;;;;;;15.85;2.80;;;;;;;30.95;40.68;95888.75;5094807;28;20052;-61
2022/09/16 06:55:40;;;;;;;13.23;2.65;;;;;;;31.35;41.07;95887.16;5094761;28;20452;-61
2022/09/16 06:58:09;;;;;;;11.77;2.58;;;;;;;31.67;40.08;95882.00;5094828;28;20105;-61
2022/09/16 07:00:36;;;;;;;13.13;2.70;;;;;;;31.96;36.36;95885.28;5094520;28;20127;-61
2022/09/16 07:03:03;;;;;;;13.82;2.80;;;;;;;32.35;34.42;95895.41;5094633;28;20051;-61
2022/09/16 07:05:30;;;;;;;12.23;2.80;;;;;;;32.65;35.11;95879.50;5094432;28;20051;-61
2022/09/16 07:07:58;;;;;;;8.70;2.38;;;;;;;32.90;35.26;95877.94;5094568;28;20075;-61
2022/09/16 07:10:25;;;;;;;10.75;2.67;;;;;;;32.86;34.75;95890.22;5094415;28;20217;-61
2022/09/16 07:12:53;;;;;;;13.73;2.92;;;;;;;32.85;34.49;95899.41;5094377;28;20128;-60
2022/09/16 07:15:21;;;;;;;8.95;2.97;;;;;;;32.84;33.92;95898.56;5094169;28;20093;-60
2022/09/16 07:17:53;;;;;;;13.98;3.13;;;;;;;33.02;34.32;95899.75;5094335;28;20080;-61
2022/09/16 07:20:20;;;;;;;11.73;2.95;;;;;;;33.24;34.44;95884.00;5094254;28;20133;-61
2022/09/16 07:22:49;;;;;;;11.98;3.00;;;;;;;33.33;34.34;95876.44;5094150;28;20056;-61
2022/09/16 07:25:16;;;;;;;12.47;2.77;;;;;;;33.53;33.99;95884.41;5094056;28;20040;-61
2022/09/16 07:27:43;;;;;;;17.58;3.72;;;;;;;33.62;33.34;95890.41;5093953;28;20376;-61
2022/09/16 07:30:11;;;;;;;10.43;2.47;;;;;;;33.74;33.13;95892.41;5094227;28;20044;-61
2022/09/16 07:32:40;;;;;;;14.30;3.00;;;;;;;33.86;32.31;95895.22;5094203;28;20087;-61
2022/09/16 07:35:08;;;;;;;10.40;3.00;;;;;;;34.06;30.85;95894.16;5094119;28;20405;-61
2022/09/16 07:37:35;;;;;;;10.60;3.03;;;;;;;34.12;30.65;95890.56;5094069;28;20044;-60
2022/09/16 07:40:04;;;;;;;7.88;2.78;;;;;;;34.21;30.46;95893.84;5093934;28;20056;-61
2022/09/16 07:42:31;;;;;;;14.07;3.55;;;;;;;34.30;30.30;95895.22;5093864;28;20410;-60
2022/09/16 07:44:58;;;;;;;12.63;2.95;;;;;;;34.43;30.16;95891.50;5093853;28;20052;-60
2022/09/16 07:47:26;;;;;;;7.80;2.90;;;;;;;34.63;30.41;95893.16;5093857;28;20040;-60
2022/09/16 07:49:55;;;;;;;11.93;2.97;;;;;;;34.59;30.90;95894.69;5093966;28;20076;-60
2022/09/16 07:52:24;;;;;;;11.43;2.80;;;;;;;34.69;31.04;95884.13;5094085;28;20040;-60
2022/09/16 07:54:52;;;;;;;10.07;2.95;;;;;;;34.85;29.54;95887.28;5093700;28;20048;-61
2022/09/16 07:57:19;;;;;;;9.48;3.05;;;;;;;34.88;31.21;95875.97;5093596;28;20075;-61
2022/09/16 07:59:47;;;;;;;13.68;3.15;;;;;;;35.06;31.43;95879.69;5093606;28;20063;-61
2022/09/16 08:02:15;;;;;;;22.85;3.30;;;;;;;35.15;29.78;95878.28;5093621;28;20050;-60
2022/09/16 08:04:42;;;;;;;21.88;3.20;;;;;;;35.21;31.13;95882.00;5093600;28;20048;-61
2022/09/16 08:07:10;;;;;;;13.57;2.80;;;;;;;35.23;29.39;95880.72;5093379;28;20436;-60
2022/09/16 08:09:38;;;;;;;10.95;3.13;;;;;;;35.38;27.99;95883.00;5093456;28;20048;-60
2022/09/16 08:12:09;;;;;;;13.55;3.42;;;;;;;35.48;29.51;95873.44;5093422;28;20506;-60
2022/09/16 08:14:38;;;;;;;11.77;3.17;;;;;;;35.35;28.40;95874.47;5093186;28;20063;-60
2022/09/16 08:17:06;;;;;;;14.32;3.17;;;;;;;35.23;29.07;95875.28;5093357;28;20405;-60
2022/09/16 08:19:33;;;;;;;14.55;3.65;;;;;;;35.41;28.48;95873.53;5093347;28;20093;-60
2022/09/16 08:22:00;;;;;;;16.48;3.50;;;;;;;35.51;25.95;95872.94;5093338;28;20047;-60
2022/09/16 08:24:29;;;;;;;11.13;3.13;;;;;;;35.50;27.34;95872.16;5093247;28;20077;-60
2022/09/16 08:26:56;;;;;;;17.23;3.83;;;;;;;35.60;28.42;95874.28;5093284;28;20405;-60
2022/09/16 08:29:24;;;;;;;21.38;3.28;;;;;;;35.58;28.61;95868.25;5093257;28;20101;-60
2022/09/16 08:31:52;;;;;;;15.75;3.10;;;;;;;35.48;28.61;95859.84;5093244;28;20101;-59
2022/09/16 08:34:19;;;;;;;21.00;3.38;;;;;;;35.23;27.78;95867.13;5093234;28;20464;-60
2022/09/16 08:36:46;;;;;;;10.32;3.10;;;;;;;35.20;28.71;95864.03;5093420;28;20498;-60
2022/09/16 08:39:13;;;;;;;16.48;3.42;;;;;;;35.30;26.86;95867.00;5097247;28;20048;-60
2022/09/16 08:42:21;;;;;;;18.63;3.28;;;;;;;35.07;26.68;95857.72;5097310;28;20535;-60
2022/09/16 08:44:55;;;;;;;18.30;3.17;;;;;;;34.99;28.30;95866.19;5084249;28;20044;-60
2022/09/16 08:47:35;;;;;;;18.63;3.30;;;;;;;34.89;28.33;95862.16;5097162;28;20047;-60
2022/09/16 08:50:08;;;;;;;13.90;3.28;;;;;;;34.45;26.49;95859.56;5097217;28;20043;-60
2022/09/16 08:52:39;;;;;;;16.27;2.97;;;;;;;34.39;28.05;95852.31;5097092;28;20066;-60
2022/09/16 08:55:12;;;;;;;12.48;2.97;;;;;;;34.04;27.22;95859.16;5097157;28;20044;-60
2022/09/16 08:57:55;;;;;;;23.15;3.83;;;;;;;34.12;28.97;95852.59;5097019;28;20079;-60
2022/09/16 09:00:23;;;;;;;14.77;3.20;;;;;;;34.18;28.55;95843.59;5097127;28;20135;-60
2022/09/16 09:02:55;;;;;;;13.35;3.38;;;;;;;34.36;28.93;95836.50;5096901;28;20486;-60
2022/09/16 09:05:34;;;;;;;17.65;4.00;;;;;;;34.39;28.55;95833.34;5096933;28;20056;-61
2022/09/16 09:08:24;;;;;;;29.57;4.37;;;;;;;34.26;30.54;95828.91;5096807;28;20044;-60
2022/09/16 09:10:56;;;;;;;22.13;4.15;;;;;;;34.11;28.20;95827.38;5096868;28;20040;-60
2022/09/16 09:13:38;;;;;;;19.80;3.90;;;;;;;34.08;27.28;95827.81;5096649;28;20060;-60
2022/09/16 09:16:13;;;;;;;14.55;3.53;;;;;;;34.09;27.95;95828.63;5096652;28;20108;-60
2022/09/16 09:18:51;;;;;;;24.10;4.80;;;;;;;34.12;29.29;95823.63;5096609;28;20052;-60
2022/09/16 09:21:26;;;;;;;19.95;4.57;;;;;;;34.25;28.79;95819.13;5096697;28;20040;-59
2022/09/16 09:24:07;;;;;;;15.90;3.33;;;;;;;34.35;28.52;95813.16;5096613;28;20479;-60
2022/09/16 09:26:47;;;;;;;13.40;3.17;;;;;;;34.59;27.97;95805.94;5096568;28;20048;-60
2022/09/16 09:29:34;;;;;;;13.60;3.88;;;;;;;34.51;27.27;95807.09;5096519;28;20669;-60
2022/09/16 09:32:14;;;;;;;21.60;3.72;;;;;;;34.47;25.88;95803.19;5096366;28;20079;-60
2022/09/16 09:34:55;;;;;;;22.30;4.13;;;;;;;34.59;26.09;95805.13;5096469;28;20405;-60
2022/09/16 09:37:41;;;;;;;22.92;4.07;;;;;;;34.42;25.92;95803.03;5096621;28;20288;-59
2022/09/16 09:40:13;;;;;;;21.90;4.07;;;;;;;34.54;26.98;95795.78;5096238;28;20506;-60
2022/09/16 09:42:48;;;;;;;17.75;3.47;;;;;;;34.44;26.08;95794.66;5096130;28;20465;-60
2022/09/16 09:45:23;;;;;;;16.00;4.30;;;;;;;34.50;26.92;95793.75;5096129;28;20469;-60
2022/09/16 09:47:55;;;;;;;18.48;3.97;;;;;;;34.50;25.94;95793.75;5096027;28;20048;-60
2022/09/16 09:50:29;;;;;;;20.48;4.18;;;;;;;34.11;27.03;95788.56;5094816;28;20044;-59
2022/09/16 09:53:05;;;;;;;22.83;3.85;;;;;;;34.22;27.23;95787.81;5096085;28;20044;-60
2022/09/16 09:55:34;;;;;;;19.45;4.53;;;;;;;34.30;24.45;95778.56;5095864;28;20071;-60
2022/09/16 09:58:11;;;;;;;20.80;5.05;;;;;;;34.25;26.15;95781.94;5096098;28;20101;-60
2022/09/16 10:00:40;;;;;;;25.05;4.55;;;;;;;34.36;25.14;95784.94;5095874;28;20056;-60
2022/09/16 10:03:12;;;;;;;20.00;4.18;;;;;;;34.27;25.11;95771.72;5096092;28;20048;-59
2022/09/16 10:05:39;;;;;;;22.75;4.38;;;;;;;34.37;24.28;95773.06;5095918;28;20051;-60
2022/09/16 10:08:15;;;;;;;23.15;3.90;;;;;;;34.44;24.46;95773.78;5095758;28;20047;-60
2022/09/16 10:10:49;;;;;;;17.30;4.10;;;;;;;34.48;25.55;95764.13;5095620;28;20048;-60
2022/09/16 10:13:16;;;;;;;16.75;4.15;;;;;;;34.33;23.90;95774.56;5095395;28;20048;-60
2022/09/16 10:15:46;;;;;;;24.35;3.83;;;;;;;34.09;23.55;95772.53;5095595;28;20040;-59
2022/09/16 10:18:21;;;;;;;26.80;4.93;;;;;;;34.11;24.74;95764.16;5095893;28;20055;-60
2022/09/16 10:21:04;;;;;;;13.52;4.07;;;;;;;34.16;24.55;95759.75;5095451;28;20052;-60
2022/09/16 10:23:33;;;;;;;30.90;5.30;;;;;;;33.94;24.31;95770.19;5095335;28;20735;-60
2022/09/16 10:26:16;;;;;;;25.77;4.55;;;;;;;33.97;24.33;95772.47;5095217;28;20135;-61
2022/09/16 10:28:57;;;;;;;27.27;4.10;;;;;;;33.98;26.54;95773.28;5095398;28;20048;-60
2022/09/16 10:31:30;;;;;;;20.88;4.10;;;;;;;34.02;25.63;95771.78;5095312;28;20079;-59
2022/09/16 10:33:59;;;;;;;27.95;4.38;;;;;;;34.11;25.27;95786.69;5095176;28;20481;-60
2022/09/16 10:36:31;;;;;;;23.25;4.88;;;;;;;34.10;24.48;95774.16;5095179;28;20044;-60
2022/09/16 10:39:01;;;;;;;24.80;4.38;;;;;;;34.18;24.86;95764.09;5095182;28;20048;-60
2022/09/16 10:41:32;;;;;;;25.33;4.57;;;;;;;34.18;24.87;95764.94;5095232;28;20044;-60
2022/09/16 10:44:02;;;;;;;20.63;4.72;;;;;;;34.24;24.89;95769.44;5095268;28;20054;-59
2022/09/16 10:46:31;;;;;;;24.55;4.28;;;;;;;34.31;25.32;95773.97;5095085;28;20383;-59
2022/09/16 10:49:03;;;;;;;25.73;4.38;;;;;;;34.31;24.71;95772.06;5095009;28;20052;-60
2022/09/16 10:51:32;;;;;;;22.70;4.55;;;;;;;34.07;24.04;95762.97;5095120;28;20130;-59
2022/09/16 10:54:02;;;;;;;20.50;4.20;;;;;;;33.76;25.23;95763.72;5095015;28;20044;-59
2022/09/16 10:56:32;;;;;;;18.23;3.80;;;;;;;33.70;25.08;95767.31;5094674;28;20494;-59
2022/09/16 10:59:04;;;;;;;25.48;3.92;;;;;;;33.63;25.73;95767.41;5094751;28;20132;-59
2022/09/16 11:01:43;;;;;;;25.25;4.28;;;;;;;33.56;25.97;95763.06;5094206;28;20044;-59
2022/09/16 11:04:48;;;;;;;25.17;4.50;;;;;;;33.56;26.64;95763.06;5094468;28;20087;-59
2022/09/16 11:07:26;;;;;;;20.90;3.83;;;;;;;33.68;27.07;95763.19;5094895;28;20044;-60
2022/09/16 11:10:02;;;;;;;24.00;3.83;;;;;;;33.76;27.17;95755.59;5094377;28;20079;-59
2022/09/16 11:13:09;;;;;;;23.65;3.88;;;;;;;33.64;26.14;95760.09;5094701;28;20397;-59
2022/09/16 11:15:50;;;;;;;17.88;3.85;;;;;;;33.65;28.42;95761.78;5094053;28;20490;-59
2022/09/16 11:18:29;;;;;;;22.55;4.03;;;;;;;33.59;27.43;95760.75;5094412;28;20555;-60
2022/09/16 11:21:25;;;;;;;17.05;3.92;;;;;;;33.60;27.19;95757.03;5094215;28;20502;-60
2022/09/16 11:24:19;;;;;;;26.63;4.40;;;;;;;33.59;27.38;95757.25;5094241;28;20137;-59
2022/09/16 11:26:55;;;;;;;24.35;3.80;;;;;;;33.45;26.18;95742.97;5094223;28;20048;-59
2022/09/16 11:29:45;;;;;;;27.40;4.32;;;;;;;33.43;27.20;95743.19;5094037;28;20067;-59
2022/09/16 11:32:26;;;;;;;21.05;4.00;;;;;;;33.34;26.42;95745.34;5094105;28;20055;-59
2022/09/16 11:35:16;;;;;;;24.88;3.88;;;;;;;33.45;27.94;95732.13;5094057;28;20109;-59
2022/09/16 11:37:50;;;;;;;25.23;4.68;;;;;;;33.51;28.99;95729.34;5094014;28;20460;-60
2022/09/16 11:40:30;;;;;;;16.35;3.65;;;;;;;33.50;28.00;95722.25;5094037;28;20044;-59
2022/09/16 11:43:06;;;;;;;23.50;4.53;;;;;;;33.43;25.75;95726.94;5094075;28;20086;-60
2022/09/16 11:45:43;;;;;;;30.60;4.13;;;;;;;33.58;27.16;95718.44;5093840;28;20048;-60
2022/09/16 11:48:32;;;;;;;20.63;3.40;;;;;;;33.65;26.81;95708.38;5094095;28;20072;-60